sensor_id;sensor_type;location;lat;lon;timestamp;pressure;altitude;pressure_sealevel;temperature;humidity
21555;BME280;10938;44.794;-0.676;2023-02-15T00:01:42;102102.69;;;11.43;100.00
21555;BME280;10938;44.794;-0.676;2023-02-15T00:04:09;102096.22;;;11.05;100.00
21555;BME280;10938;44.794;-0.676;2023-02-15T00:06:35;102096.41;;;11.38;100.00
21555;BME280;10938;44.794;-0.676;2023-02-15T00:09:00;102092.84;;;11.63;100.00
21555;BME280;10938;44.794;-0.676;2023-02-15T00:11:26;102101.50;;;11.62;100.00
21555;BME280;10938;44.794;-0.676;2023-02-15T00:14:19;102101.06;;;11.47;100.00
21555;BME280;10938;44.794;-0.676;2023-02-15T00:16:45;102097.16;;;11.61;100.00
21555;BME280;10938;44.794;-0.676;2023-02-15T00:19:13;102094.41;;;11.58;100.00
21555;BME280;10938;44.794;-0.676;2023-02-15T00:21:39;102089.28;;;11.32;100.00
21555;BME280;10938;44.794;-0.676;2023-02-15T00:24:07;102092.16;;;11.42;100.00
21555;BME280;10938;44.794;-0.676;2023-02-15T00:26:33;102089.44;;;11.10;100.00
21555;BME280;10938;44.794;-0.676;2023-02-15T00:28:59;102084.19;;;10.83;100.00
21555;BME280;10938;44.794;-0.676;2023-02-15T00:31:26;102076.69;;;10.67;100.00
21555;BME280;10938;44.794;-0.676;2023-02-15T00:33:52;102084.06;;;11.32;100.00
21555;BME280;10938;44.794;-0.676;2023-02-15T00:36:17;102078.69;;;11.28;100.00
21555;BME280;10938;44.794;-0.676;2023-02-15T00:38:43;102074.06;;;11.48;100.00
21555;BME280;10938;44.794;-0.676;2023-02-15T00:41:09;102071.59;;;11.79;100.00
21555;BME280;10938;44.794;-0.676;2023-02-15T00:43:35;102075.44;;;11.92;100.00
21555;BME280;10938;44.794;-0.676;2023-02-15T00:46:02;102076.44;;;11.95;100.00
21555;BME280;10938;44.794;-0.676;2023-02-15T00:48:28;102078.19;;;11.40;100.00
21555;BME280;10938;44.794;-0.676;2023-02-15T00:50:58;102071.97;;;11.36;100.00
21555;BME280;10938;44.794;-0.676;2023-02-15T00:53:24;102065.59;;;11.00;100.00
21555;BME280;10938;44.794;-0.676;2023-02-15T00:55:50;102078.84;;;11.32;100.00
21555;BME280;10938;44.794;-0.676;2023-02-15T00:58:16;102073.94;;;11.43;100.00
21555;BME280;10938;44.794;-0.676;2023-02-15T01:00:46;102073.31;;;11.50;100.00
21555;BME280;10938;44.794;-0.676;2023-02-15T01:03:13;102079.25;;;11.73;100.00
21555;BME280;10938;44.794;-0.676;2023-02-15T01:05:39;102070.53;;;11.72;100.00
21555;BME280;10938;44.794;-0.676;2023-02-15T01:08:05;102070.72;;;11.23;100.00
21555;BME280;10938;44.794;-0.676;2023-02-15T01:10:33;102065.16;;;11.13;100.00
21555;BME280;10938;44.794;-0.676;2023-02-15T01:12:58;102065.00;;;11.08;100.00
21555;BME280;10938;44.794;-0.676;2023-02-15T01:15:24;102063.94;;;10.76;100.00
21555;BME280;10938;44.794;-0.676;2023-02-15T01:17:50;102055.84;;;10.69;100.00
21555;BME280;10938;44.794;-0.676;2023-02-15T01:20:20;102062.38;;;10.56;100.00
21555;BME280;10938;44.794;-0.676;2023-02-15T01:22:46;102054.38;;;10.52;100.00
21555;BME280;10938;44.794;-0.676;2023-02-15T01:25:12;102057.72;;;10.48;100.00
21555;BME280;10938;44.794;-0.676;2023-02-15T01:27:37;102070.03;;;10.28;100.00
21555;BME280;10938;44.794;-0.676;2023-02-15T01:30:03;102076.09;;;10.05;100.00
21555;BME280;10938;44.794;-0.676;2023-02-15T01:32:30;102073.34;;;10.00;100.00
21555;BME280;10938;44.794;-0.676;2023-02-15T01:34:55;102069.25;;;10.07;100.00
21555;BME280;10938;44.794;-0.676;2023-02-15T01:37:21;102059.84;;;9.88;100.00
21555;BME280;10938;44.794;-0.676;2023-02-15T01:39:46;102071.72;;;9.80;100.00
21555;BME280;10938;44.794;-0.676;2023-02-15T01:42:21;102072.69;;;10.53;100.00
21555;BME280;10938;44.794;-0.676;2023-02-15T01:44:52;102072.69;;;10.53;100.00
21555;BME280;10938;44.794;-0.676;2023-02-15T01:49:47;102075.47;;;10.83;100.00
21555;BME280;10938;44.794;-0.676;2023-02-15T01:52:15;102070.22;;;10.58;100.00
21555;BME280;10938;44.794;-0.676;2023-02-15T01:54:44;102072.13;;;10.62;100.00
21555;BME280;10938;44.794;-0.676;2023-02-15T01:57:17;102074.81;;;10.40;100.00
21555;BME280;10938;44.794;-0.676;2023-02-15T01:59:46;102063.69;;;10.69;100.00
21555;BME280;10938;44.794;-0.676;2023-02-15T02:04:54;102056.19;;;10.54;100.00
21555;BME280;10938;44.794;-0.676;2023-02-15T02:07:27;102054.19;;;10.46;100.00
21555;BME280;10938;44.794;-0.676;2023-02-15T02:09:54;102067.91;;;10.40;100.00
21555;BME280;10938;44.794;-0.676;2023-02-15T02:12:21;102060.19;;;10.43;100.00
21555;BME280;10938;44.794;-0.676;2023-02-15T02:14:49;102056.78;;;10.46;100.00
21555;BME280;10938;44.794;-0.676;2023-02-15T02:17:26;102054.97;;;10.19;100.00
21555;BME280;10938;44.794;-0.676;2023-02-15T02:33:43;102054.63;;;10.10;100.00
21555;BME280;10938;44.794;-0.676;2023-02-15T02:36:26;102043.94;;;10.52;100.00
21555;BME280;10938;44.794;-0.676;2023-02-15T02:44:16;102046.09;;;10.38;100.00
21555;BME280;10938;44.794;-0.676;2023-02-15T02:46:58;102035.13;;;10.01;100.00
21555;BME280;10938;44.794;-0.676;2023-02-15T02:49:39;102040.88;;;10.14;100.00
21555;BME280;10938;44.794;-0.676;2023-02-15T03:00:25;102041.88;;;9.72;100.00
21555;BME280;10938;44.794;-0.676;2023-02-15T03:02:57;102042.91;;;9.99;100.00
21555;BME280;10938;44.794;-0.676;2023-02-15T03:05:30;102027.34;;;9.77;100.00
21555;BME280;10938;44.794;-0.676;2023-02-15T03:07:58;102027.56;;;9.83;100.00
21555;BME280;10938;44.794;-0.676;2023-02-15T03:10:27;102036.84;;;10.22;100.00
21555;BME280;10938;44.794;-0.676;2023-02-15T03:12:54;102035.44;;;10.08;100.00
21555;BME280;10938;44.794;-0.676;2023-02-15T03:15:24;102033.88;;;10.13;100.00
21555;BME280;10938;44.794;-0.676;2023-02-15T03:17:57;102038.28;;;9.91;100.00
21555;BME280;10938;44.794;-0.676;2023-02-15T03:20:33;102033.22;;;9.95;100.00
21555;BME280;10938;44.794;-0.676;2023-02-15T03:23:04;102021.91;;;9.49;100.00
21555;BME280;10938;44.794;-0.676;2023-02-15T03:25:34;102034.19;;;9.75;100.00
21555;BME280;10938;44.794;-0.676;2023-02-15T03:28:06;102028.56;;;9.64;100.00
21555;BME280;10938;44.794;-0.676;2023-02-15T03:30:34;102039.50;;;10.00;100.00
21555;BME280;10938;44.794;-0.676;2023-02-15T03:33:02;102041.41;;;9.82;100.00
21555;BME280;10938;44.794;-0.676;2023-02-15T03:35:48;102033.72;;;10.32;100.00
21555;BME280;10938;44.794;-0.676;2023-02-15T03:38:20;102037.00;;;10.51;100.00
21555;BME280;10938;44.794;-0.676;2023-02-15T03:40:47;102031.28;;;9.90;100.00
21555;BME280;10938;44.794;-0.676;2023-02-15T03:46:47;102025.97;;;9.87;100.00
21555;BME280;10938;44.794;-0.676;2023-02-15T03:49:22;102036.50;;;9.90;100.00
21555;BME280;10938;44.794;-0.676;2023-02-15T03:51:51;102032.88;;;9.86;100.00
21555;BME280;10938;44.794;-0.676;2023-02-15T03:54:33;102039.41;;;9.99;100.00
21555;BME280;10938;44.794;-0.676;2023-02-15T03:57:28;102039.13;;;9.91;100.00
21555;BME280;10938;44.794;-0.676;2023-02-15T04:00:34;102032.66;;;9.80;100.00
21555;BME280;10938;44.794;-0.676;2023-02-15T04:05:48;102028.75;;;9.69;100.00
21555;BME280;10938;44.794;-0.676;2023-02-15T04:08:13;102040.03;;;9.46;100.00
21555;BME280;10938;44.794;-0.676;2023-02-15T04:10:39;102028.69;;;9.44;100.00
21555;BME280;10938;44.794;-0.676;2023-02-15T04:13:29;102032.50;;;9.53;100.00
21555;BME280;10938;44.794;-0.676;2023-02-15T04:15:55;102030.88;;;9.79;100.00
21555;BME280;10938;44.794;-0.676;2023-02-15T04:21:13;102034.75;;;9.44;100.00
21555;BME280;10938;44.794;-0.676;2023-02-15T04:23:57;102034.94;;;9.49;100.00
21555;BME280;10938;44.794;-0.676;2023-02-15T04:26:41;102020.09;;;9.46;100.00
21555;BME280;10938;44.794;-0.676;2023-02-15T04:29:06;102017.19;;;9.84;100.00
21555;BME280;10938;44.794;-0.676;2023-02-15T04:31:34;102029.03;;;9.30;100.00
21555;BME280;10938;44.794;-0.676;2023-02-15T04:33:59;102036.03;;;9.55;100.00
21555;BME280;10938;44.794;-0.676;2023-02-15T04:36:25;102033.75;;;9.41;100.00
21555;BME280;10938;44.794;-0.676;2023-02-15T04:38:51;102040.72;;;9.64;100.00
21555;BME280;10938;44.794;-0.676;2023-02-15T04:41:16;102039.25;;;9.48;100.00
21555;BME280;10938;44.794;-0.676;2023-02-15T04:43:41;102038.97;;;9.41;100.00
21555;BME280;10938;44.794;-0.676;2023-02-15T04:46:07;102037.06;;;9.59;100.00
21555;BME280;10938;44.794;-0.676;2023-02-15T04:48:32;102035.81;;;9.49;100.00
21555;BME280;10938;44.794;-0.676;2023-02-15T04:50:58;102037.41;;;9.68;100.00
21555;BME280;10938;44.794;-0.676;2023-02-15T04:53:23;102033.84;;;9.66;100.00
21555;BME280;10938;44.794;-0.676;2023-02-15T04:55:48;102034.03;;;9.48;100.00
21555;BME280;10938;44.794;-0.676;2023-02-15T04:58:14;102032.19;;;9.68;100.00
21555;BME280;10938;44.794;-0.676;2023-02-15T05:00:39;102036.94;;;9.56;100.00
21555;BME280;10938;44.794;-0.676;2023-02-15T05:03:05;102039.84;;;9.63;100.00
21555;BME280;10938;44.794;-0.676;2023-02-15T05:05:30;102038.47;;;9.51;100.00
21555;BME280;10938;44.794;-0.676;2023-02-15T05:07:56;102044.19;;;9.41;100.00
21555;BME280;10938;44.794;-0.676;2023-02-15T05:10:21;102042.50;;;9.89;100.00
21555;BME280;10938;44.794;-0.676;2023-02-15T05:12:47;102036.38;;;9.64;100.00
21555;BME280;10938;44.794;-0.676;2023-02-15T05:15:12;102040.25;;;9.52;100.00
21555;BME280;10938;44.794;-0.676;2023-02-15T05:17:38;102036.34;;;9.63;100.00
21555;BME280;10938;44.794;-0.676;2023-02-15T05:20:03;102035.88;;;9.73;100.00
21555;BME280;10938;44.794;-0.676;2023-02-15T05:22:29;102037.72;;;9.53;100.00
21555;BME280;10938;44.794;-0.676;2023-02-15T05:24:54;102031.56;;;9.29;100.00
21555;BME280;10938;44.794;-0.676;2023-02-15T05:27:39;102043.44;;;9.67;100.00
21555;BME280;10938;44.794;-0.676;2023-02-15T05:30:23;102045.94;;;9.88;100.00
21555;BME280;10938;44.794;-0.676;2023-02-15T05:32:48;102044.50;;;9.72;100.00
21555;BME280;10938;44.794;-0.676;2023-02-15T05:35:14;102048.34;;;9.59;100.00
21555;BME280;10938;44.794;-0.676;2023-02-15T05:37:40;102044.41;;;9.93;100.00
21555;BME280;10938;44.794;-0.676;2023-02-15T05:40:06;102040.28;;;9.75;100.00
21555;BME280;10938;44.794;-0.676;2023-02-15T05:42:32;102038.22;;;9.45;100.00
21555;BME280;10938;44.794;-0.676;2023-02-15T05:44:57;102035.84;;;9.51;100.00
21555;BME280;10938;44.794;-0.676;2023-02-15T05:47:23;102042.63;;;9.92;100.00
21555;BME280;10938;44.794;-0.676;2023-02-15T05:49:48;102055.16;;;10.02;100.00
21555;BME280;10938;44.794;-0.676;2023-02-15T05:52:13;102058.94;;;10.10;100.00
21555;BME280;10938;44.794;-0.676;2023-02-15T05:54:39;102055.28;;;10.05;100.00
21555;BME280;10938;44.794;-0.676;2023-02-15T05:57:04;102048.19;;;9.77;100.00
21555;BME280;10938;44.794;-0.676;2023-02-15T05:59:29;102045.94;;;9.88;100.00
21555;BME280;10938;44.794;-0.676;2023-02-15T06:01:55;102059.47;;;10.01;100.00
21555;BME280;10938;44.794;-0.676;2023-02-15T06:04:20;102058.97;;;9.88;100.00
21555;BME280;10938;44.794;-0.676;2023-02-15T06:06:46;102061.22;;;10.24;100.00
21555;BME280;10938;44.794;-0.676;2023-02-15T06:09:12;102062.94;;;10.48;100.00
21555;BME280;10938;44.794;-0.676;2023-02-15T06:11:37;102060.00;;;10.89;100.00
21555;BME280;10938;44.794;-0.676;2023-02-15T06:14:03;102062.97;;;10.74;100.00
21555;BME280;10938;44.794;-0.676;2023-02-15T06:16:29;102070.09;;;10.78;100.00
21555;BME280;10938;44.794;-0.676;2023-02-15T06:18:54;102066.28;;;10.20;100.00
21555;BME280;10938;44.794;-0.676;2023-02-15T06:21:20;102070.56;;;10.67;100.00
21555;BME280;10938;44.794;-0.676;2023-02-15T06:23:45;102074.81;;;10.16;100.00
21555;BME280;10938;44.794;-0.676;2023-02-15T06:26:11;102083.88;;;10.03;100.00
21555;BME280;10938;44.794;-0.676;2023-02-15T06:28:36;102082.66;;;10.16;100.00
21555;BME280;10938;44.794;-0.676;2023-02-15T06:31:02;102092.56;;;10.50;100.00
21555;BME280;10938;44.794;-0.676;2023-02-15T06:33:28;102089.53;;;10.14;100.00
21555;BME280;10938;44.794;-0.676;2023-02-15T06:35:55;102084.75;;;9.80;100.00
21555;BME280;10938;44.794;-0.676;2023-02-15T06:38:21;102078.31;;;9.70;100.00
21555;BME280;10938;44.794;-0.676;2023-02-15T06:40:47;102082.97;;;9.57;100.00
21555;BME280;10938;44.794;-0.676;2023-02-15T06:43:12;102085.25;;;9.27;100.00
21555;BME280;10938;44.794;-0.676;2023-02-15T06:45:38;102089.13;;;9.59;100.00
21555;BME280;10938;44.794;-0.676;2023-02-15T06:48:04;102097.19;;;9.87;100.00
21555;BME280;10938;44.794;-0.676;2023-02-15T06:50:32;102096.56;;;10.16;100.00
21555;BME280;10938;44.794;-0.676;2023-02-15T06:52:58;102097.16;;;9.43;100.00
21555;BME280;10938;44.794;-0.676;2023-02-15T06:55:24;102091.97;;;10.11;100.00
21555;BME280;10938;44.794;-0.676;2023-02-15T06:57:49;102095.50;;;9.45;100.00
21555;BME280;10938;44.794;-0.676;2023-02-15T07:00:15;102096.66;;;9.73;100.00
21555;BME280;10938;44.794;-0.676;2023-02-15T07:02:41;102102.25;;;9.84;100.00
21555;BME280;10938;44.794;-0.676;2023-02-15T07:05:06;102103.28;;;10.11;100.00
21555;BME280;10938;44.794;-0.676;2023-02-15T07:07:32;102120.34;;;9.81;100.00
21555;BME280;10938;44.794;-0.676;2023-02-15T07:09:57;102119.16;;;10.17;100.00
21555;BME280;10938;44.794;-0.676;2023-02-15T07:12:23;102122.72;;;9.75;100.00
21555;BME280;10938;44.794;-0.676;2023-02-15T07:15:07;102123.09;;;10.06;100.00
21555;BME280;10938;44.794;-0.676;2023-02-15T07:17:35;102129.78;;;10.46;100.00
21555;BME280;10938;44.794;-0.676;2023-02-15T07:20:01;102135.50;;;10.36;100.00
21555;BME280;10938;44.794;-0.676;2023-02-15T07:22:26;102130.56;;;9.97;100.00
21555;BME280;10938;44.794;-0.676;2023-02-15T07:24:53;102146.00;;;9.93;100.00
21555;BME280;10938;44.794;-0.676;2023-02-15T07:27:20;102141.69;;;10.15;100.00
21555;BME280;10938;44.794;-0.676;2023-02-15T07:29:46;102146.41;;;10.25;100.00
21555;BME280;10938;44.794;-0.676;2023-02-15T07:32:11;102151.25;;;10.39;100.00
21555;BME280;10938;44.794;-0.676;2023-02-15T07:34:36;102140.03;;;10.41;100.00
21555;BME280;10938;44.794;-0.676;2023-02-15T07:37:02;102157.25;;;10.36;100.00
21555;BME280;10938;44.794;-0.676;2023-02-15T07:39:27;102143.97;;;10.08;100.00
21555;BME280;10938;44.794;-0.676;2023-02-15T07:41:53;102150.91;;;10.29;100.00
21555;BME280;10938;44.794;-0.676;2023-02-15T07:44:20;102159.88;;;10.14;100.00
21555;BME280;10938;44.794;-0.676;2023-02-15T07:46:46;102149.91;;;9.81;100.00
21555;BME280;10938;44.794;-0.676;2023-02-15T07:49:11;102151.88;;;9.87;100.00
21555;BME280;10938;44.794;-0.676;2023-02-15T07:51:36;102151.97;;;10.58;100.00
21555;BME280;10938;44.794;-0.676;2023-02-15T07:54:02;102155.66;;;10.89;100.00
21555;BME280;10938;44.794;-0.676;2023-02-15T07:56:27;102162.50;;;11.10;100.00
21555;BME280;10938;44.794;-0.676;2023-02-15T07:58:53;102166.56;;;10.77;100.00
21555;BME280;10938;44.794;-0.676;2023-02-15T08:01:40;102155.47;;;11.34;100.00
21555;BME280;10938;44.794;-0.676;2023-02-15T08:04:06;102156.53;;;11.14;100.00
21555;BME280;10938;44.794;-0.676;2023-02-15T08:06:35;102154.78;;;11.13;100.00
21555;BME280;10938;44.794;-0.676;2023-02-15T08:09:07;102176.59;;;10.90;100.00
21555;BME280;10938;44.794;-0.676;2023-02-15T08:11:34;102167.19;;;10.95;100.00
21555;BME280;10938;44.794;-0.676;2023-02-15T08:14:10;102170.00;;;11.26;100.00
21555;BME280;10938;44.794;-0.676;2023-02-15T08:19:08;102171.22;;;11.37;100.00
21555;BME280;10938;44.794;-0.676;2023-02-15T08:21:36;102170.38;;;10.63;100.00
21555;BME280;10938;44.794;-0.676;2023-02-15T08:24:03;102175.94;;;10.72;100.00
21555;BME280;10938;44.794;-0.676;2023-02-15T08:26:29;102179.53;;;10.75;100.00
21555;BME280;10938;44.794;-0.676;2023-02-15T08:28:56;102180.34;;;10.74;100.00
21555;BME280;10938;44.794;-0.676;2023-02-15T08:31:21;102184.03;;;11.82;100.00
21555;BME280;10938;44.794;-0.676;2023-02-15T08:33:48;102190.94;;;12.07;100.00
21555;BME280;10938;44.794;-0.676;2023-02-15T08:36:16;102180.72;;;11.61;100.00
21555;BME280;10938;44.794;-0.676;2023-02-15T08:38:42;102185.78;;;12.10;100.00
21555;BME280;10938;44.794;-0.676;2023-02-15T08:41:09;102185.59;;;12.95;100.00
21555;BME280;10938;44.794;-0.676;2023-02-15T08:43:35;102171.09;;;12.43;100.00
21555;BME280;10938;44.794;-0.676;2023-02-15T08:46:00;102180.41;;;12.65;100.00
21555;BME280;10938;44.794;-0.676;2023-02-15T08:48:26;102172.28;;;13.18;100.00
21555;BME280;10938;44.794;-0.676;2023-02-15T08:50:51;102175.44;;;12.43;100.00
21555;BME280;10938;44.794;-0.676;2023-02-15T08:53:16;102193.91;;;12.49;100.00
21555;BME280;10938;44.794;-0.676;2023-02-15T08:55:46;102176.28;;;13.04;100.00
21555;BME280;10938;44.794;-0.676;2023-02-15T08:58:12;102183.66;;;12.26;100.00
21555;BME280;10938;44.794;-0.676;2023-02-15T09:00:37;102186.31;;;12.87;100.00
21555;BME280;10938;44.794;-0.676;2023-02-15T09:03:03;102192.84;;;13.05;100.00
21555;BME280;10938;44.794;-0.676;2023-02-15T09:05:28;102194.47;;;13.67;100.00
21555;BME280;10938;44.794;-0.676;2023-02-15T09:07:53;102197.59;;;13.88;100.00
21555;BME280;10938;44.794;-0.676;2023-02-15T09:10:19;102206.28;;;12.84;100.00
21555;BME280;10938;44.794;-0.676;2023-02-15T09:12:45;102207.09;;;13.14;100.00
21555;BME280;10938;44.794;-0.676;2023-02-15T09:15:11;102205.06;;;14.09;100.00
21555;BME280;10938;44.794;-0.676;2023-02-15T09:17:36;102201.03;;;14.24;100.00
21555;BME280;10938;44.794;-0.676;2023-02-15T09:20:02;102207.72;;;14.48;100.00
21555;BME280;10938;44.794;-0.676;2023-02-15T09:22:27;102220.00;;;13.39;100.00
21555;BME280;10938;44.794;-0.676;2023-02-15T09:24:53;102211.13;;;13.34;100.00
21555;BME280;10938;44.794;-0.676;2023-02-15T09:27:18;102206.13;;;13.79;100.00
21555;BME280;10938;44.794;-0.676;2023-02-15T09:29:44;102203.78;;;13.21;100.00
21555;BME280;10938;44.794;-0.676;2023-02-15T09:32:13;102198.53;;;14.29;100.00
21555;BME280;10938;44.794;-0.676;2023-02-15T09:34:39;102205.69;;;13.97;100.00
21555;BME280;10938;44.794;-0.676;2023-02-15T09:37:05;102200.84;;;13.78;100.00
21555;BME280;10938;44.794;-0.676;2023-02-15T09:39:31;102202.28;;;13.64;100.00
21555;BME280;10938;44.794;-0.676;2023-02-15T09:42:50;102207.25;;;14.68;100.00
21555;BME280;10938;44.794;-0.676;2023-02-15T09:45:16;102219.44;;;14.26;100.00
21555;BME280;10938;44.794;-0.676;2023-02-15T10:06:34;102216.78;;;15.08;100.00
21555;BME280;10938;44.794;-0.676;2023-02-15T10:09:38;102224.72;;;15.58;100.00
21555;BME280;10938;44.794;-0.676;2023-02-15T10:34:14;102238.72;;;16.74;100.00
21555;BME280;10938;44.794;-0.676;2023-02-15T10:37:52;102244.19;;;16.26;100.00
21555;BME280;10938;44.794;-0.676;2023-02-15T11:01:05;102235.78;;;17.26;96.85
21555;BME280;10938;44.794;-0.676;2023-02-15T11:03:45;102244.97;;;16.20;100.00
21555;BME280;10938;44.794;-0.676;2023-02-15T11:06:17;102244.03;;;16.77;98.82
21555;BME280;10938;44.794;-0.676;2023-02-15T11:08:46;102241.25;;;17.44;96.11
21555;BME280;10938;44.794;-0.676;2023-02-15T11:11:21;102250.94;;;16.69;99.91
21555;BME280;10938;44.794;-0.676;2023-02-15T11:13:51;102242.81;;;16.54;99.81
21555;BME280;10938;44.794;-0.676;2023-02-15T11:16:25;102251.44;;;17.11;96.42
21555;BME280;10938;44.794;-0.676;2023-02-15T11:18:58;102244.66;;;17.34;96.40
21555;BME280;10938;44.794;-0.676;2023-02-15T11:21:33;102247.94;;;18.07;93.36
21555;BME280;10938;44.794;-0.676;2023-02-15T11:24:12;102245.91;;;17.73;94.09
21555;BME280;10938;44.794;-0.676;2023-02-15T11:34:40;102234.88;;;17.24;94.90
21555;BME280;10938;44.794;-0.676;2023-02-15T11:37:11;102227.59;;;16.97;95.31
21555;BME280;10938;44.794;-0.676;2023-02-15T11:39:38;102233.38;;;16.68;96.37
21555;BME280;10938;44.794;-0.676;2023-02-15T11:42:14;102221.06;;;17.49;92.34
21555;BME280;10938;44.794;-0.676;2023-02-15T11:47:14;102228.00;;;17.40;94.05
21555;BME280;10938;44.794;-0.676;2023-02-15T11:49:40;102216.56;;;17.39;94.71
21555;BME280;10938;44.794;-0.676;2023-02-15T11:52:07;102223.25;;;18.00;91.59
21555;BME280;10938;44.794;-0.676;2023-02-15T11:54:39;102219.66;;;17.91;91.75
21555;BME280;10938;44.794;-0.676;2023-02-15T11:57:22;102218.84;;;18.01;91.64
21555;BME280;10938;44.794;-0.676;2023-02-15T12:02:26;102215.75;;;18.91;86.57
21555;BME280;10938;44.794;-0.676;2023-02-15T12:05:01;102226.28;;;18.72;87.03
21555;BME280;10938;44.794;-0.676;2023-02-15T12:07:36;102217.66;;;19.94;82.10
21555;BME280;10938;44.794;-0.676;2023-02-15T12:12:41;102220.13;;;18.79;84.77
21555;BME280;10938;44.794;-0.676;2023-02-15T12:15:09;102219.28;;;18.89;84.01
21555;BME280;10938;44.794;-0.676;2023-02-15T12:17:49;102218.50;;;19.31;81.62
21555;BME280;10938;44.794;-0.676;2023-02-15T12:22:51;102207.91;;;19.23;80.48
21555;BME280;10938;44.794;-0.676;2023-02-15T12:25:33;102211.47;;;19.59;79.16
21555;BME280;10938;44.794;-0.676;2023-02-15T12:28:00;102192.88;;;20.09;77.95
21555;BME280;10938;44.794;-0.676;2023-02-15T12:30:32;102197.38;;;19.50;78.07
21555;BME280;10938;44.794;-0.676;2023-02-15T12:35:33;102192.91;;;19.16;79.22
21555;BME280;10938;44.794;-0.676;2023-02-15T12:38:09;102189.38;;;19.10;77.88
21555;BME280;10938;44.794;-0.676;2023-02-15T12:41:21;102196.44;;;19.26;79.23
21555;BME280;10938;44.794;-0.676;2023-02-15T12:43:47;102188.41;;;20.44;75.58
21555;BME280;10938;44.794;-0.676;2023-02-15T12:46:27;102187.22;;;21.01;72.96
21555;BME280;10938;44.794;-0.676;2023-02-15T12:49:07;102183.13;;;20.41;68.13
21555;BME280;10938;44.794;-0.676;2023-02-15T12:52:04;102178.53;;;21.92;62.27
21555;BME280;10938;44.794;-0.676;2023-02-15T12:57:32;102178.44;;;22.01;59.95
21555;BME280;10938;44.794;-0.676;2023-02-15T13:00:01;102173.00;;;21.13;56.23
21555;BME280;10938;44.794;-0.676;2023-02-15T13:02:34;102178.69;;;20.43;58.45
21555;BME280;10938;44.794;-0.676;2023-02-15T13:05:19;102170.22;;;21.29;58.61
21555;BME280;10938;44.794;-0.676;2023-02-15T13:07:56;102168.06;;;21.74;54.95
21555;BME280;10938;44.794;-0.676;2023-02-15T13:10:35;102169.97;;;21.60;49.47
21555;BME280;10938;44.794;-0.676;2023-02-15T13:13:09;102160.53;;;22.18;51.21
21555;BME280;10938;44.794;-0.676;2023-02-15T13:15:37;102175.06;;;22.58;49.39
21555;BME280;10938;44.794;-0.676;2023-02-15T13:18:05;102167.44;;;23.00;47.38
21555;BME280;10938;44.794;-0.676;2023-02-15T13:20:35;102165.81;;;22.90;45.13
21555;BME280;10938;44.794;-0.676;2023-02-15T13:23:22;102164.66;;;23.07;42.41
21555;BME280;10938;44.794;-0.676;2023-02-15T13:25:50;102164.63;;;23.09;44.84
21555;BME280;10938;44.794;-0.676;2023-02-15T13:28:18;102167.84;;;23.29;43.32
21555;BME280;10938;44.794;-0.676;2023-02-15T13:30:46;102170.78;;;23.66;43.82
21555;BME280;10938;44.794;-0.676;2023-02-15T13:33:37;102160.38;;;23.54;42.20
21555;BME280;10938;44.794;-0.676;2023-02-15T13:50:03;102140.28;;;23.84;42.09
21555;BME280;10938;44.794;-0.676;2023-02-15T13:52:24;102145.34;;;23.96;41.46
21555;BME280;10938;44.794;-0.676;2023-02-15T14:14:00;102132.41;;;24.24;38.70
21555;BME280;10938;44.794;-0.676;2023-02-15T14:20:01;102137.56;;;23.87;37.83
21555;BME280;10938;44.794;-0.676;2023-02-15T14:24:51;102136.19;;;24.12;36.83
21555;BME280;10938;44.794;-0.676;2023-02-15T14:30:03;102139.31;;;24.32;37.47
21555;BME280;10938;44.794;-0.676;2023-02-15T14:32:39;102132.53;;;24.18;36.80
21555;BME280;10938;44.794;-0.676;2023-02-15T14:35:15;102130.03;;;24.07;37.13
21555;BME280;10938;44.794;-0.676;2023-02-15T14:38:04;102132.53;;;24.18;37.25
21555;BME280;10938;44.794;-0.676;2023-02-15T14:48:56;102136.91;;;24.20;36.47
21555;BME280;10938;44.794;-0.676;2023-02-15T14:59:37;102140.41;;;24.22;35.20
21555;BME280;10938;44.794;-0.676;2023-02-15T15:04:55;102137.81;;;24.21;34.24
21555;BME280;10938;44.794;-0.676;2023-02-15T15:07:22;102142.47;;;24.08;34.88
21555;BME280;10938;44.794;-0.676;2023-02-15T15:15:44;102152.09;;;24.17;34.68
21555;BME280;10938;44.794;-0.676;2023-02-15T15:18:44;102156.84;;;23.99;33.76
21555;BME280;10938;44.794;-0.676;2023-02-15T15:21:10;102151.06;;;23.78;34.15
21555;BME280;10938;44.794;-0.676;2023-02-15T15:23:44;102157.88;;;23.92;34.73
21555;BME280;10938;44.794;-0.676;2023-02-15T15:26:31;102162.38;;;23.89;34.15
21555;BME280;10938;44.794;-0.676;2023-02-15T15:29:01;102161.47;;;23.39;34.99
21555;BME280;10938;44.794;-0.676;2023-02-15T15:31:40;102162.38;;;23.89;34.18
21555;BME280;10938;44.794;-0.676;2023-02-15T15:34:40;102160.25;;;24.06;34.42
21555;BME280;10938;44.794;-0.676;2023-02-15T15:40:41;102160.66;;;23.86;35.37
21555;BME280;10938;44.794;-0.676;2023-02-15T15:45:44;102161.25;;;23.54;35.44
21555;BME280;10938;44.794;-0.676;2023-02-15T15:48:40;102151.38;;;23.61;34.79
21555;BME280;10938;44.794;-0.676;2023-02-15T15:51:25;102151.03;;;23.27;35.50
21555;BME280;10938;44.794;-0.676;2023-02-15T15:53:53;102144.59;;;23.39;35.50
21555;BME280;10938;44.794;-0.676;2023-02-15T15:56:27;102146.53;;;23.31;35.90
21555;BME280;10938;44.794;-0.676;2023-02-15T15:59:00;102143.00;;;23.30;35.54
21555;BME280;10938;44.794;-0.676;2023-02-15T16:01:31;102146.44;;;23.35;35.42
21555;BME280;10938;44.794;-0.676;2023-02-15T16:03:59;102144.03;;;23.20;35.85
21555;BME280;10938;44.794;-0.676;2023-02-15T16:06:36;102141.06;;;23.40;35.65
21555;BME280;10938;44.794;-0.676;2023-02-15T16:09:29;102149.66;;;23.57;36.31
21555;BME280;10938;44.794;-0.676;2023-02-15T16:11:56;102143.72;;;23.41;36.17
21555;BME280;10938;44.794;-0.676;2023-02-15T16:14:32;102152.81;;;23.25;37.03